Time;durP1;ratioP1;P1;durP2;ratioP2;P2;SDS_P1;SDS_P2;PMS_P1;PMS_P2;Temp;Humidity;BMP_temperature;BMP_pressure;BME280_temperature;BME280_humidity;BME280_pressure;Samples;Min_cycle;Max_cycle;Signal;HPM_P1;HPM_P2
2021/08/25 02:05:33;;;;;;;8.43;3.30;;;13.10;1.00;;;;;;5043351;28;20220;-90
2021/08/25 02:07:59;;;;;;;4.57;2.97;;;13.10;1.00;;;;;;5037537;28;20213;-90
2021/08/25 02:10:24;;;;;;;3.60;2.77;;;13.00;1.00;;;;;;5007579;28;20207;-92
2021/08/25 02:12:50;;;;;;;4.30;2.63;;;13.00;1.00;;;;;;4999843;28;20208;-90
2021/08/25 02:15:17;;;;;;;3.90;2.73;;;13.00;1.00;;;;;;5003816;28;20205;-90
2021/08/25 02:17:43;;;;;;;4.93;3.47;;;13.00;1.00;;;;;;5000173;28;20223;-92
2021/08/25 02:20:09;;;;;;;3.70;2.70;;;13.00;1.00;;;;;;5015167;28;20210;-93
2021/08/25 02:22:35;;;;;;;3.60;2.70;;;12.90;1.00;;;;;;5009744;28;20193;-91
2021/08/25 02:25:02;;;;;;;3.27;2.60;;;13.10;1.00;;;;;;5002659;28;20680;-90
2021/08/25 02:27:28;;;;;;;3.80;2.73;;;13.10;1.00;;;;;;4948188;28;21116;-90
2021/08/25 02:29:58;;;;;;;4.27;2.93;;;13.00;1.00;;;;;;4957508;28;20197;-90
2021/08/25 02:32:26;;;;;;;4.53;2.60;;;12.90;1.00;;;;;;4957619;28;20195;-92
2021/08/25 02:34:53;;;;;;;4.53;2.97;;;12.90;1.00;;;;;;4947050;28;20257;-91
2021/08/25 02:37:21;;;;;;;5.03;3.10;;;13.00;1.00;;;;;;4947968;28;20245;-91
2021/08/25 02:39:50;;;;;;;5.57;2.90;;;12.90;1.00;;;;;;4931922;29;20293;-92
2021/08/25 02:42:16;;;;;;;4.73;2.93;;;;;;;;;;4968552;28;20212;-92
2021/08/25 02:44:42;;;;;;;3.93;3.13;;;;;;;;;;4965824;28;20202;-92
2021/08/25 02:47:08;;;;;;;5.13;2.37;;;12.90;1.00;;;;;;4948789;29;20308;-92
2021/08/25 02:49:34;;;;;;;4.27;2.70;;;12.90;1.00;;;;;;4964687;28;21057;-92
2021/08/25 02:52:00;;;;;;;4.87;2.97;;;12.90;1.00;;;;;;4932862;29;20222;-92
2021/08/25 02:54:27;;;;;;;2.67;2.40;;;12.90;1.00;;;;;;4965989;28;20260;-90
2021/08/25 02:56:53;;;;;;;4.57;2.80;;;;;;;;;;4943402;29;20220;-91
2021/08/25 02:59:22;;;;;;;3.40;2.83;;;12.80;1.00;;;;;;4906218;29;20296;-90
2021/08/25 03:01:50;;;;;;;3.57;2.60;;;13.20;1.00;;;;;;4927748;29;20205;-90
2021/08/25 03:04:16;;;;;;;3.37;2.80;;;12.80;1.00;;;;;;4915810;29;20294;-93
2021/08/25 03:06:42;;;;;;;5.07;3.07;;;;;;;;;;4891580;29;20228;-92
2021/08/25 03:09:08;;;;;;;5.07;2.83;;;12.80;1.00;;;;;;4895219;29;20204;-92
2021/08/25 03:11:34;;;;;;;3.90;2.87;;;12.80;1.00;;;;;;4879388;29;20222;-90
2021/08/25 03:14:01;;;;;;;3.40;2.33;;;12.80;1.00;;;;;;4893253;29;20192;-91
2021/08/25 03:16:27;;;;;;;5.23;2.57;;;12.80;1.00;;;;;;4903126;29;20189;-92
2021/08/25 03:18:53;;;;;;;6.50;2.60;;;12.80;1.00;;;;;;4897227;29;20231;-92
2021/08/25 03:21:21;;;;;;;4.27;2.70;;;12.70;1.00;;;;;;4926213;29;20923;-93
2021/08/25 03:23:48;;;;;;;3.90;2.60;;;12.70;1.00;;;;;;4895897;29;20232;-92
2021/08/25 03:26:15;;;;;;;4.37;2.63;;;12.70;1.00;;;;;;4914879;29;20209;-93
2021/08/25 03:28:43;;;;;;;5.10;2.60;;;12.70;1.00;;;;;;4922793;29;20246;-90
2021/08/25 03:31:12;;;;;;;5.00;3.27;;;12.70;1.00;;;;;;4866418;29;20230;-91
2021/08/25 03:33:39;;;;;;;3.43;2.60;;;12.70;1.00;;;;;;4928963;29;20211;-93
2021/08/25 03:36:08;;;;;;;3.53;2.63;;;12.70;1.00;;;;;;4892368;29;20213;-92
2021/08/25 03:38:34;;;;;;;7.90;2.97;;;;;;;;;;4945784;29;20438;-93
2021/08/25 03:41:02;;;;;;;5.03;2.20;;;;;;;;;;4927561;29;20786;-91
2021/08/25 03:43:33;;;;;;;4.67;2.63;;;12.60;1.00;;;;;;4927913;29;20407;-91
2021/08/25 03:45:59;;;;;;;7.73;2.50;;;;;;;;;;4905258;29;20683;-92
2021/08/25 03:48:29;;;;;;;3.50;2.70;;;12.60;1.00;;;;;;4927092;29;20204;-90
2021/08/25 03:51:00;;;;;;;6.00;2.87;;;12.60;1.00;;;;;;4908704;29;20215;-90
2021/08/25 03:53:27;;;;;;;3.87;2.80;;;;;;;;;;4878758;29;20208;-92
2021/08/25 03:55:53;;;;;;;4.43;2.93;;;12.60;1.00;;;;;;4947217;29;20668;-92
2021/08/25 03:58:25;;;;;;;3.83;2.63;;;12.50;1.00;;;;;;4887166;29;20220;-92
2021/08/25 04:00:53;;;;;;;3.57;2.60;;;12.60;1.00;;;;;;4947815;29;20228;-92
2021/08/25 04:03:19;;;;;;;4.17;2.83;;;;;;;;;;4937809;29;20782;-95
2021/08/25 04:05:45;;;;;;;2.93;2.50;;;12.50;1.00;;;;;;4934201;29;20205;-92
2021/08/25 04:08:26;;;;;;;4.43;2.50;;;12.50;1.00;;;;;;4928322;29;20209;-91
2021/08/25 04:11:04;;;;;;;5.47;3.20;;;;;;;;;;4887499;29;20272;-91
2021/08/25 04:14:01;;;;;;;5.57;2.77;;;12.50;1.00;;;;;;4933186;28;20209;-91
2021/08/25 04:16:34;;;;;;;4.77;2.67;;;12.40;1.00;;;;;;4964237;28;20233;-90
2021/08/25 04:19:26;;;;;;;6.03;2.77;;;12.40;1.00;;;;;;5002239;28;20230;-91
2021/08/25 04:22:17;;;;;;;5.17;2.90;;;12.40;1.00;;;;;;5004355;28;20207;-93
2021/08/25 04:24:45;;;;;;;4.30;2.60;;;12.40;1.00;;;;;;5043257;28;20193;-92
2021/08/25 04:27:15;;;;;;;4.30;2.40;;;12.40;1.00;;;;;;4933247;28;20247;-92
2021/08/25 04:29:44;;;;;;;2.90;2.50;;;;;;;;;;5013592;28;20215;-90
2021/08/25 04:32:12;;;;;;;2.73;2.43;;;12.40;1.00;;;;;;5044029;28;20218;-92
2021/08/25 04:34:38;;;;;;;5.83;2.67;;;;;;;;;;4992640;28;20284;-90
2021/08/25 04:37:05;;;;;;;3.33;2.70;;;;;;;;;;5041546;28;20609;-90
2021/08/25 04:39:36;;;;;;;5.10;2.83;;;12.30;1.00;;;;;;4998829;28;20225;-92
2021/08/25 04:42:32;;;;;;;3.00;2.70;;;12.40;1.00;;;;;;4950164;28;20685;-92
2021/08/25 04:45:21;;;;;;;8.23;3.63;;;12.40;1.00;;;;;;4983989;28;20328;-92
2021/08/25 04:48:23;;;;;;;3.73;2.60;;;12.40;1.00;;;;;;4984834;28;20188;-90
2021/08/25 04:51:04;;;;;;;3.53;2.60;;;12.40;1.00;;;;;;4949753;28;20236;-92
2021/08/25 04:53:39;;;;;;;6.00;2.53;;;12.40;1.00;;;;;;4929241;28;20212;-90
2021/08/25 04:56:08;;;;;;;3.87;2.63;;;12.40;1.00;;;;;;4975545;28;20751;-89
2021/08/25 04:58:41;;;;;;;3.67;3.00;;;12.40;1.00;;;;;;4945574;29;20339;-90
2021/08/25 05:01:17;;;;;;;6.13;2.70;;;13.10;1.00;;;;;;4955853;28;20246;-92
2021/08/25 05:03:48;;;;;;;3.20;2.37;;;12.50;1.00;;;;;;4918145;28;20202;-89
2021/08/25 05:06:22;;;;;;;3.17;2.20;;;12.50;1.00;;;;;;4945366;29;20208;-89
2021/08/25 05:09:03;;;;;;;5.77;2.70;;;12.50;1.00;;;;;;4919963;28;20568;-92
2021/08/25 05:11:33;;;;;;;4.40;2.87;;;;;;;;;;4936144;28;20242;-89
2021/08/25 05:14:02;;;;;;;3.93;2.80;;;12.60;1.00;;;;;;4968997;28;20212;-92
2021/08/25 05:16:44;;;;;;;2.87;2.53;;;12.70;1.00;;;;;;4944537;28;20621;-92
2021/08/25 05:19:14;;;;;;;4.90;2.77;;;12.80;1.00;;;;;;4944120;28;20215;-93
2021/08/25 05:21:46;;;;;;;3.10;2.57;;;12.80;1.00;;;;;;4934705;28;20194;-91
2021/08/25 05:24:24;;;;;;;2.77;2.50;;;12.90;1.00;;;;;;4977505;28;20275;-91
2021/08/25 05:27:02;;;;;;;3.10;2.57;;;12.90;1.00;;;;;;4986203;28;20226;-93
2021/08/25 05:29:38;;;;;;;6.27;2.87;;;13.00;1.00;;;;;;4959319;28;20202;-91
2021/08/25 05:32:28;;;;;;;4.20;2.53;;;13.00;1.00;;;;;;4991912;28;20746;-92
2021/08/25 05:35:13;;;;;;;5.13;2.37;;;13.10;1.00;;;;;;4959360;28;20213;-93
2021/08/25 05:37:42;;;;;;;2.80;2.30;;;13.20;1.00;;;;;;4972584;28;20206;-92
2021/08/25 05:40:37;;;;;;;5.73;2.80;;;13.20;1.00;;;;;;5005335;28;21264;-91
2021/08/25 05:43:11;;;;;;;3.40;2.40;;;13.30;1.00;;;;;;5018754;28;20281;-90
2021/08/25 05:45:37;;;;;;;5.23;3.03;;;13.30;1.00;;;;;;4928257;28;20200;-90
2021/08/25 05:48:19;;;;;;;5.57;3.03;;;13.40;1.00;;;;;;4963025;28;20223;-90
2021/08/25 05:50:49;;;;;;;3.73;2.33;;;;;;;;;;4964475;28;20208;-88
2021/08/25 05:53:15;;;;;;;3.23;2.27;;;;;;;;;;4929984;28;20197;-90
2021/08/25 05:55:40;;;;;;;4.73;2.40;;;13.60;1.00;;;;;;4961834;28;20191;-90
2021/08/25 05:58:06;;;;;;;5.70;2.77;;;14.40;1.00;;;;;;4964199;28;20193;-90
2021/08/25 06:00:32;;;;;;;3.57;2.67;;;13.70;1.00;;;;;;4958738;28;20242;-90
2021/08/25 06:02:58;;;;;;;4.30;2.57;;;13.80;1.00;;;;;;4962206;28;20781;-91
2021/08/25 06:05:26;;;;;;;8.00;2.97;;;;;;;;;;4964047;28;20194;-93
2021/08/25 06:07:53;;;;;;;3.20;2.30;;;;;;;;;;4973607;28;20241;-92
2021/08/25 06:10:22;;;;;;;4.87;2.80;;;14.10;1.00;;;;;;4984879;28;20204;-92
2021/08/25 06:12:49;;;;;;;4.00;2.37;;;14.20;1.00;;;;;;4972473;28;20213;-93
2021/08/25 06:15:15;;;;;;;2.77;2.30;;;;;;;;;;5011395;28;20188;-92
2021/08/25 06:17:47;;;;;;;3.17;2.70;;;14.20;1.00;;;;;;5046967;28;20191;-91
2021/08/25 06:20:20;;;;;;;4.63;2.77;;;;;;;;;;4977077;28;20215;-91
2021/08/25 06:22:46;;;;;;;3.53;3.23;;;;;;;;;;5040381;28;20191;-91
2021/08/25 06:25:15;;;;;;;4.27;2.43;;;14.30;1.00;;;;;;5048098;28;20186;-92
2021/08/25 06:27:41;;;;;;;5.33;2.57;;;14.40;1.00;;;;;;5013682;28;20219;-91
2021/08/25 06:30:07;;;;;;;4.73;2.73;;;14.30;1.00;;;;;;5056534;28;20219;-93
2021/08/25 06:32:33;;;;;;;3.60;2.60;;;;;;;;;;5041522;28;20226;-91
2021/08/25 06:35:01;;;;;;;4.37;2.47;;;14.70;1.00;;;;;;5043544;28;20183;-91
2021/08/25 06:37:26;;;;;;;2.97;2.77;;;14.70;1.00;;;;;;5023266;28;20208;-90
2021/08/25 06:39:52;;;;;;;3.20;2.67;;;14.80;1.00;;;;;;5009343;28;20683;-89
2021/08/25 06:42:18;;;;;;;3.97;2.43;;;15.00;1.00;;;;;;5011957;28;20185;-90
2021/08/25 06:44:43;;;;;;;3.17;2.80;;;15.00;1.00;;;;;;5008515;28;20179;-90
2021/08/25 06:47:09;;;;;;;2.90;2.33;;;15.20;1.00;;;;;;5023456;28;20223;-90
2021/08/25 06:49:34;;;;;;;4.90;2.30;;;15.40;1.00;;;;;;5024390;28;20216;-89
2021/08/25 06:52:00;;;;;;;3.27;2.60;;;15.50;1.00;;;;;;5000343;28;20195;-91
2021/08/25 06:54:26;;;;;;;3.87;2.50;;;15.60;1.00;;;;;;5023032;28;20263;-89
2021/08/25 06:56:52;;;;;;;3.03;2.40;;;15.80;1.00;;;;;;5003386;28;20214;-90
2021/08/25 06:59:17;;;;;;;3.97;2.70;;;15.90;1.00;;;;;;5012238;28;20326;-90
2021/08/25 07:01:43;;;;;;;5.27;2.63;;;15.90;1.00;;;;;;5022725;28;20197;-89
2021/08/25 07:04:09;;;;;;;5.70;2.67;;;15.90;1.00;;;;;;5041560;28;20201;-89
2021/08/25 07:06:34;;;;;;;5.20;2.23;;;15.90;1.00;;;;;;5047498;28;20180;-90
2021/08/25 07:09:00;;;;;;;3.47;2.37;;;16.00;1.00;;;;;;5046523;28;20204;-90
2021/08/25 07:11:41;;;;;;;2.83;2.27;;;16.00;1.00;;;;;;5055332;28;20235;-91
2021/08/25 07:14:07;;;;;;;3.37;2.70;;;;;;;;;;5005340;28;20223;-91
2021/08/25 07:16:34;;;;;;;3.23;2.80;;;;;;;;;;5047905;28;20188;-93
2021/08/25 07:19:02;;;;;;;4.93;2.50;;;16.50;1.00;;;;;;5048003;28;20228;-92
2021/08/25 07:21:28;;;;;;;4.60;2.57;;;;;;;;;;5041796;28;20191;-90
2021/08/25 07:23:55;;;;;;;5.93;2.57;;;;;;;;;;5042703;28;20216;-91
2021/08/25 07:26:21;;;;;;;6.77;2.80;;;;;;;;;;5043137;28;20204;-90
2021/08/25 07:28:47;;;;;;;2.83;2.07;;;;;;;;;;5039965;28;20194;-89
2021/08/25 07:31:14;;;;;;;2.43;2.17;;;16.80;1.00;;;;;;5044674;28;20217;-90
2021/08/25 07:33:40;;;;;;;3.13;2.00;;;16.80;1.00;;;;;;5042031;28;20189;-90
2021/08/25 07:36:08;;;;;;;2.37;2.13;;;16.90;1.00;;;;;;5043459;28;20219;-90
2021/08/25 07:38:34;;;;;;;3.97;2.30;;;17.10;1.00;;;;;;5040884;28;20210;-89
2021/08/25 07:41:00;;;;;;;3.70;2.23;;;;;;;;;;5034466;28;20229;-91
2021/08/25 07:43:26;;;;;;;2.53;2.07;;;;;;;;;;5038148;28;20218;-90
2021/08/25 07:45:52;;;;;;;2.63;1.80;;;;;;;;;;5043396;28;20487;-90
2021/08/25 07:48:21;;;;;;;3.43;2.27;;;17.50;1.00;;;;;;5033573;28;20592;-91
2021/08/25 07:50:49;;;;;;;4.73;2.30;;;17.60;1.00;;;;;;5032453;28;20198;-90
2021/08/25 07:53:16;;;;;;;3.23;2.40;;;17.70;1.00;;;;;;5040751;28;20258;-90
2021/08/25 07:55:42;;;;;;;6.17;2.40;;;;;;;;;;5039427;28;20287;-91
2021/08/25 07:58:08;;;;;;;3.37;2.40;;;;;;;;;;5045244;28;20286;-91
2021/08/25 08:00:35;;;;;;;3.47;2.30;;;;;;;;;;4990454;28;20246;-91
2021/08/25 08:03:01;;;;;;;6.33;3.07;;;;;;;;;;5042005;28;20205;-91
2021/08/25 08:05:27;;;;;;;4.33;2.33;;;;;;;;;;5043870;28;20221;-91
2021/08/25 08:08:18;;;;;;;4.40;2.40;;;18.20;1.00;;;;;;5040496;28;20199;-91
2021/08/25 08:11:05;;;;;;;5.17;2.57;;;18.30;1.00;;;;;;5041931;28;20195;-90
2021/08/25 08:13:46;;;;;;;7.80;3.33;;;18.40;1.00;;;;;;5010583;28;20239;-92
2021/08/25 08:16:18;;;;;;;5.03;2.50;;;;;;;;;;5042264;28;20256;-92
2021/08/25 08:18:56;;;;;;;6.03;2.50;;;;;;;;;;5055649;28;20310;-92
2021/08/25 08:21:46;;;;;;;5.93;2.67;;;18.20;1.00;;;;;;4990314;28;20205;-92
2021/08/25 08:24:18;;;;;;;5.83;2.70;;;;;;;;;;4962937;28;20232;-91
2021/08/25 08:26:45;;;;;;;5.23;2.77;;;18.30;1.00;;;;;;4972226;28;20193;-93
2021/08/25 08:29:15;;;;;;;6.30;2.80;;;;;;;;;;4968116;28;20198;-90
2021/08/25 08:31:44;;;;;;;4.43;2.40;;;;;;;;;;4968467;28;20267;-92
2021/08/25 08:34:20;;;;;;;11.30;3.33;;;;;;;;;;4976062;28;20212;-92
2021/08/25 08:37:06;;;;;;;5.97;2.40;;;;;;;;;;4987932;28;20201;-91
2021/08/25 08:39:48;;;;;;;3.07;1.93;;;19.20;1.00;;;;;;4977386;28;20219;-91
2021/08/25 08:42:56;;;;;;;5.20;2.47;;;19.10;1.00;;;;;;4970698;28;20211;-91
2021/08/25 08:45:24;;;;;;;3.90;2.30;;;19.20;1.00;;;;;;4866900;29;20223;-91
2021/08/25 08:48:22;;;;;;;;;;;;;;;;;;;;;
2021/08/25 08:50:54;;;;;;;4.87;2.20;;;;;;;;;;4997905;28;20260;-90
2021/08/25 08:53:27;;;;;;;5.80;2.27;;;;;;;;;;5030910;28;20226;-91
2021/08/25 08:56:13;;;;;;;3.17;2.27;;;;;;;;;;5011295;28;20218;-91
2021/08/25 08:58:54;;;;;;;5.53;2.60;;;;;;;;;;5017033;28;20197;-91
2021/08/25 09:01:20;;;;;;;4.27;3.07;;;;;;;;;;5043570;28;20188;-92
2021/08/25 09:03:50;;;;;;;3.10;2.20;;;19.20;1.00;;;;;;5027236;28;20675;-91
2021/08/25 09:06:16;;;;;;;4.37;2.50;;;;;;;;;;5044320;28;20264;-88
2021/08/25 09:08:57;;;;;;;3.67;2.10;;;19.40;1.00;;;;;;5020719;28;20230;-90
2021/08/25 09:11:26;;;;;;;3.20;2.47;;;;;;;;;;5041828;28;20165;-91
2021/08/25 09:13:52;;;;;;;3.93;2.23;;;;;;;;;;5043559;28;20278;-90
2021/08/25 09:16:35;;;;;;;5.20;2.97;;;19.40;1.00;;;;;;5039624;28;20189;-91
2021/08/25 09:19:13;;;;;;;4.83;2.70;;;;;;;;;;5043212;28;20227;-91
2021/08/25 09:21:53;;;;;;;4.40;2.77;;;19.60;1.00;;;;;;5042807;28;20190;-91
2021/08/25 09:24:24;;;;;;;5.27;2.50;;;19.60;1.00;;;;;;5016884;28;20195;-91
2021/08/25 09:27:14;;;;;;;2.97;2.50;;;19.70;1.00;;;;;;5037471;28;20193;-91
2021/08/25 09:29:42;;;;;;;2.70;2.23;;;19.90;1.00;;;;;;5037088;28;20245;-89
2021/08/25 09:32:17;;;;;;;4.13;2.37;;;19.90;1.00;;;;;;5023315;28;20194;-90
2021/08/25 09:34:44;;;;;;;3.00;2.37;;;;;;;;;;5021364;28;20289;-89
2021/08/25 09:37:16;;;;;;;3.03;2.60;;;20.00;1.00;;;;;;5000532;28;20218;-90
2021/08/25 09:39:49;;;;;;;3.10;2.73;;;20.10;1.00;;;;;;5020596;28;20266;-90
2021/08/25 09:42:20;;;;;;;3.83;2.90;;;20.10;1.00;;;;;;5019886;28;20205;-91
2021/08/25 09:45:03;;;;;;;3.23;2.50;;;20.30;1.00;;;;;;4985294;28;20210;-90
2021/08/25 09:47:53;;;;;;;4.27;2.63;;;20.40;1.00;;;;;;5002892;28;20199;-91
2021/08/25 09:50:26;;;;;;;3.23;2.43;;;20.60;1.00;;;;;;5001427;28;20200;-89
2021/08/25 09:52:53;;;;;;;2.83;2.27;;;20.50;1.00;;;;;;5018367;28;20209;-91
2021/08/25 09:55:33;;;;;;;3.87;2.90;;;20.50;1.00;;;;;;4983564;28;20207;-92
2021/08/25 09:58:00;;;;;;;2.87;2.37;;;;;;;;;;4982258;28;20178;-91
2021/08/25 10:00:27;;;;;;;6.33;3.23;;;;;;;;;;4966421;28;20216;-91
2021/08/25 10:02:59;;;;;;;3.33;2.83;;;20.40;1.00;;;;;;4964000;28;20203;-90
2021/08/25 10:05:28;;;;;;;3.90;2.40;;;20.50;1.00;;;;;;4964549;28;20424;-91
2021/08/25 10:07:57;;;;;;;3.07;2.50;;;20.50;1.00;;;;;;4963627;29;20300;-89
2021/08/25 10:10:30;;;;;;;3.97;2.93;;;20.60;1.00;;;;;;4962985;28;20212;-90
2021/08/25 10:13:02;;;;;;;2.97;2.23;;;;;;;;;;4946716;28;20323;-90
2021/08/25 10:15:58;;;;;;;3.93;2.97;;;20.80;1.00;;;;;;4992625;28;20188;-92
2021/08/25 10:18:24;;;;;;;4.13;2.83;;;;;;;;;;4917647;29;20205;-92
2021/08/25 10:20:55;;;;;;;3.53;2.80;;;21.10;1.00;;;;;;4917766;29;20283;-93
2021/08/25 10:23:57;;;;;;;4.97;2.87;;;21.10;1.00;;;;;;4907021;29;20216;-93
2021/08/25 10:26:23;;;;;;;2.43;2.23;;;21.20;1.00;;;;;;4945977;28;20203;-92
2021/08/25 10:29:07;;;;;;;4.17;2.93;;;21.30;1.00;;;;;;4943504;28;20244;-91
2021/08/25 10:32:08;;;;;;;3.93;2.60;;;21.00;1.00;;;;;;4960516;28;20432;-89
2021/08/25 10:34:38;;;;;;;2.47;2.27;;;21.10;1.00;;;;;;4923733;29;20213;-91
2021/08/25 10:37:13;;;;;;;3.03;2.43;;;20.80;1.00;;;;;;4893006;29;20273;-89
2021/08/25 10:39:42;;;;;;;2.97;2.50;;;20.80;1.00;;;;;;4913956;29;20228;-88
2021/08/25 10:42:08;;;;;;;3.77;2.67;;;21.00;1.00;;;;;;4911535;29;20211;-89
2021/08/25 10:44:37;;;;;;;3.87;2.93;;;21.20;1.00;;;;;;4918416;29;20273;-89
2021/08/25 10:47:37;;;;;;;4.03;2.53;;;21.20;1.00;;;;;;4923280;29;20202;-93
2021/08/25 10:50:11;;;;;;;4.40;2.60;;;21.10;1.00;;;;;;4922018;29;20208;-85
2021/08/25 10:52:37;;;;;;;4.07;2.90;;;21.30;1.00;;;;;;4906773;29;20241;-88
2021/08/25 10:55:03;;;;;;;3.97;2.73;;;21.50;1.00;;;;;;4932354;28;20203;-87
2021/08/25 10:57:29;;;;;;;5.50;2.60;;;21.50;1.00;;;;;;4962991;28;20203;-88
2021/08/25 11:00:08;;;;;;;3.63;2.60;;;21.60;1.00;;;;;;4969855;28;20310;-86
2021/08/25 11:02:40;;;;;;;3.30;2.47;;;21.50;1.00;;;;;;4970444;28;20197;-87
2021/08/25 11:05:06;;;;;;;3.60;2.47;;;21.50;1.00;;;;;;4980934;28;20221;-87
2021/08/25 11:07:41;;;;;;;3.30;2.30;;;21.60;1.00;;;;;;4966637;28;20273;-88
2021/08/25 11:10:07;;;;;;;3.10;2.40;;;21.60;1.00;;;;;;4965624;28;20230;-88
2021/08/25 11:12:33;;;;;;;4.43;2.80;;;21.90;1.00;;;;;;5034071;28;20213;-87
2021/08/25 11:14:58;;;;;;;3.77;3.00;;;22.00;1.00;;;;;;5047575;28;20269;-86
2021/08/25 11:17:31;;;;;;;2.97;2.30;;;22.20;1.00;;;;;;5043337;28;20235;-87
2021/08/25 11:19:57;;;;;;;4.93;2.90;;;22.40;1.00;;;;;;5041912;28;20237;-88
2021/08/25 11:22:25;;;;;;;5.13;2.87;;;22.40;1.00;;;;;;5036212;28;20665;-89
2021/08/25 11:25:13;;;;;;;4.33;2.77;;;22.50;1.00;;;;;;5042687;28;20704;-88
2021/08/25 11:27:47;;;;;;;2.67;2.40;;;22.10;1.00;;;;;;5042680;28;20177;-88
2021/08/25 11:30:19;;;;;;;4.60;2.80;;;22.20;1.00;;;;;;5040775;28;20185;-87
2021/08/25 11:32:56;;;;;;;8.23;2.90;;;22.50;1.00;;;;;;5036962;28;20188;-88
2021/08/25 11:35:33;;;;;;;5.67;2.80;;;22.70;1.00;;;;;;5042942;28;20261;-88
2021/08/25 11:38:11;;;;;;;3.90;2.90;;;22.90;1.00;;;;;;5043858;28;20185;-87
2021/08/25 11:40:42;;;;;;;4.00;2.87;;;23.70;1.00;;;;;;5056546;28;20719;-87
2021/08/25 11:43:09;;;;;;;4.57;2.80;;;23.70;1.00;;;;;;5039997;28;20190;-89
2021/08/25 11:45:37;;;;;;;4.03;2.53;;;24.60;1.00;;;;;;5040999;28;20217;-81
2021/08/25 11:48:04;;;;;;;3.50;2.42;;;25.70;1.00;;;;;;5044093;28;20198;-87
2021/08/25 11:50:32;;;;;;;5.03;3.15;;;26.40;1.00;;;;;;5039924;28;20190;-87
2021/08/25 11:53:00;;;;;;;2.67;2.33;;;27.10;1.00;;;;;;5035858;28;20187;-88
2021/08/25 11:55:26;;;;;;;3.75;2.60;;;27.10;1.00;;;;;;5042456;28;20191;-87
2021/08/25 11:57:54;;;;;;;3.63;2.95;;;27.70;1.00;;;;;;5043272;28;20194;-88
2021/08/25 12:00:21;;;;;;;6.15;3.10;;;28.40;1.00;;;;;;5022390;28;20257;-88
2021/08/25 12:02:58;;;;;;;3.58;2.88;;;28.80;1.00;;;;;;5044810;28;20202;-87
2021/08/25 12:05:32;;;;;;;3.22;2.50;;;28.60;1.00;;;;;;5033459;28;20194;-86
2021/08/25 12:08:04;;;;;;;2.95;2.35;;;28.50;1.00;;;;;;5042267;28;20183;-88
2021/08/25 12:10:32;;;;;;;4.13;2.95;;;28.60;1.00;;;;;;5044007;28;20183;-88
2021/08/25 12:12:58;;;;;;;4.07;2.50;;;29.50;1.00;;;;;;5041223;28;20217;-87
2021/08/25 12:15:52;;;;;;;4.15;2.65;;;29.70;1.00;;;;;;5041115;28;20229;-87
2021/08/25 12:18:28;;;;;;;4.07;2.80;;;30.70;1.00;;;;;;5034634;28;20194;-89
2021/08/25 12:20:55;;;;;;;3.53;2.70;;;30.80;1.00;;;;;;5035841;28;20298;-89
2021/08/25 12:23:27;;;;;;;4.43;2.45;;;31.30;1.00;;;;;;5039939;28;20707;-87
2021/08/25 12:25:57;;;;;;;3.58;2.78;;;31.70;1.00;;;;;;5040303;28;20202;-87
2021/08/25 12:28:39;;;;;;;4.57;3.10;;;31.40;1.00;;;;;;5040773;28;20214;-86
2021/08/25 12:31:12;;;;;;;4.20;3.00;;;30.30;1.00;;;;;;5035350;28;20206;-87
2021/08/25 12:33:37;;;;;;;4.30;2.50;;;30.20;1.00;;;;;;5039233;28;20302;-87
2021/08/25 12:36:24;;;;;;;3.63;2.70;;;30.30;1.00;;;;;;5041032;28;20171;-87
2021/08/25 12:38:55;;;;;;;2.88;2.33;;;31.10;1.00;;;;;;5040330;28;20207;-87
2021/08/25 12:41:21;;;;;;;3.45;2.40;;;32.40;1.00;;;;;;5042670;28;20205;-88
2021/08/25 12:43:48;;;;;;;2.97;2.50;;;32.80;1.00;;;;;;5041467;28;20191;-88
2021/08/25 12:46:14;;;;;;;2.80;2.47;;;32.90;1.00;;;;;;5035952;28;20295;-88
2021/08/25 12:48:39;;;;;;;4.13;2.80;;;33.20;1.00;;;;;;5043692;28;20183;-87
2021/08/25 12:51:05;;;;;;;3.15;2.83;;;33.40;1.00;;;;;;5041012;28;20202;-87
2021/08/25 12:53:31;;;;;;;3.13;2.60;;;33.80;1.00;;;;;;5042153;28;20577;-88
2021/08/25 12:55:56;;;;;;;3.10;2.55;;;33.40;1.00;;;;;;5041407;28;20187;-88
2021/08/25 12:58:22;;;;;;;2.72;2.25;;;32.70;1.00;;;;;;5037440;28;20222;-86
2021/08/25 13:00:47;;;;;;;3.90;2.42;;;32.10;1.00;;;;;;5045332;28;20565;-87
2021/08/25 13:03:14;;;;;;;2.67;2.10;;;;;;;;;;5041511;28;20215;-86
2021/08/25 13:05:39;;;;;;;3.47;2.58;;;33.40;1.00;;;;;;5041504;28;20211;-87
2021/08/25 13:08:05;;;;;;;2.72;2.17;;;33.30;1.00;;;;;;5035606;28;20194;-86
2021/08/25 13:10:31;;;;;;;4.53;2.65;;;33.20;1.00;;;;;;5040997;28;20183;-87
2021/08/25 13:12:56;;;;;;;2.83;2.17;;;34.10;1.00;;;;;;5037215;28;20890;-87
2021/08/25 13:15:22;;;;;;;3.00;2.28;;;34.10;1.00;;;;;;5056246;28;21059;-86
2021/08/25 13:17:49;;;;;;;3.00;2.05;;;33.00;1.00;;;;;;5041581;28;20211;-87
2021/08/25 13:20:15;;;;;;;3.17;2.33;;;33.20;1.00;;;;;;5038386;28;20250;-87
2021/08/25 13:22:40;;;;;;;2.83;2.60;;;34.00;1.00;;;;;;5040997;28;20219;-87
2021/08/25 13:25:07;;;;;;;2.78;2.50;;;34.10;1.00;;;;;;5041807;28;20183;-87
2021/08/25 13:27:32;;;;;;;3.92;2.30;;;34.10;1.00;;;;;;5038881;28;21147;-87
2021/08/25 13:29:58;;;;;;;2.83;2.28;;;34.30;1.00;;;;;;5030500;28;20197;-87
2021/08/25 13:32:23;;;;;;;6.18;2.75;;;34.30;1.00;;;;;;5040485;28;20190;-87
2021/08/25 13:34:49;;;;;;;2.75;2.40;;;35.00;1.00;;;;;;5041351;28;20202;-87
2021/08/25 13:37:15;;;;;;;3.40;2.50;;;34.30;1.00;;;;;;5040160;28;20191;-87
2021/08/25 13:39:41;;;;;;;3.63;2.92;;;34.50;1.00;;;;;;5040822;28;20225;-86
2021/08/25 13:42:07;;;;;;;3.63;2.60;;;33.40;1.00;;;;;;5039847;28;20179;-86
2021/08/25 13:44:34;;;;;;;3.42;2.40;;;34.10;1.00;;;;;;5039381;28;20684;-86
2021/08/25 13:46:59;;;;;;;3.03;2.40;;;;;;;;;;5040932;28;20247;-86
2021/08/25 13:49:25;;;;;;;3.42;2.38;;;35.60;1.00;;;;;;5036265;28;20182;-86
2021/08/25 13:51:51;;;;;;;4.10;2.50;;;35.10;1.00;;;;;;5039731;28;20186;-86
2021/08/25 13:54:16;;;;;;;3.30;2.40;;;34.30;1.00;;;;;;5034578;28;20233;-85
2021/08/25 13:56:42;;;;;;;11.98;2.97;;;33.60;1.00;;;;;;5041056;28;20175;-85
2021/08/25 13:59:08;;;;;;;3.88;2.22;;;33.50;1.00;;;;;;5039208;28;20199;-86
2021/08/25 14:01:33;;;;;;;2.83;2.55;;;34.20;1.00;;;;;;5039321;28;20214;-86
2021/08/25 14:03:59;;;;;;;2.78;2.35;;;33.80;1.00;;;;;;5034936;28;20186;-86
2021/08/25 14:06:25;;;;;;;3.72;2.88;;;33.80;1.00;;;;;;5038122;28;20170;-85
2021/08/25 14:08:50;;;;;;;3.08;2.42;;;34.60;1.00;;;;;;5036752;28;20210;-86
2021/08/25 14:11:17;;;;;;;2.95;2.38;;;34.30;1.00;;;;;;5038705;28;20236;-87
2021/08/25 14:13:44;;;;;;;3.40;2.55;;;34.20;1.00;;;;;;5040657;28;20260;-87
2021/08/25 14:16:10;;;;;;;3.05;2.55;;;34.00;1.00;;;;;;5040899;28;20226;-86
2021/08/25 14:18:35;;;;;;;3.67;2.67;;;34.30;1.00;;;;;;5035813;28;20703;-87
2021/08/25 14:21:02;;;;;;;3.20;2.45;;;34.10;1.00;;;;;;5039717;28;20210;-87
2021/08/25 14:23:28;;;;;;;2.90;2.25;;;35.00;1.00;;;;;;5041097;28;20179;-87
2021/08/25 14:25:55;;;;;;;4.38;2.78;;;36.00;1.00;;;;;;5041090;28;20194;-87
2021/08/25 14:28:25;;;;;;;4.47;2.50;;;36.70;1.00;;;;;;5034057;28;20187;-87
2021/08/25 14:30:55;;;;;;;4.15;2.30;;;37.50;1.00;;;;;;5041291;28;20190;-87
2021/08/25 14:33:21;;;;;;;3.33;2.40;;;37.70;1.00;;;;;;5060872;28;20191;-87
2021/08/25 14:35:48;;;;;;;2.47;2.28;;;37.30;1.00;;;;;;5029465;28;20188;-87
2021/08/25 14:38:14;;;;;;;2.83;2.40;;;36.80;1.00;;;;;;5044961;28;20193;-86
2021/08/25 14:40:40;;;;;;;3.03;2.40;;;36.80;1.00;;;;;;5049575;28;20219;-87
2021/08/25 14:43:05;;;;;;;2.95;2.25;;;36.60;1.00;;;;;;5043557;28;20183;-86
2021/08/25 14:45:31;;;;;;;3.75;2.88;;;36.40;1.00;;;;;;5044437;28;20179;-86
2021/08/25 14:47:57;;;;;;;3.22;2.40;;;34.80;1.00;;;;;;5047992;28;20187;-86
2021/08/25 14:50:22;;;;;;;4.53;2.70;;;34.30;1.00;;;;;;5042426;28;20205;-87
2021/08/25 14:52:48;;;;;;;2.65;2.45;;;34.60;1.00;;;;;;5029872;28;20287;-87
2021/08/25 14:55:13;;;;;;;3.35;2.72;;;35.00;1.00;;;;;;5043215;28;20195;-87
2021/08/25 14:57:39;;;;;;;3.30;2.67;;;35.40;1.00;;;;;;5050518;28;20350;-87
2021/08/25 15:00:05;;;;;;;3.28;2.47;;;36.00;1.00;;;;;;5043187;28;20604;-87
2021/08/25 15:02:31;;;;;;;2.88;2.10;;;36.40;1.00;;;;;;5056602;28;20282;-87
2021/08/25 15:04:57;;;;;;;3.28;2.58;;;37.50;1.00;;;;;;5043384;28;20674;-87
2021/08/25 15:07:23;;;;;;;3.70;2.40;;;38.30;1.00;;;;;;5042170;28;20560;-87
2021/08/25 15:09:49;;;;;;;3.35;2.42;;;38.80;1.00;;;;;;5045744;28;20258;-87
2021/08/25 15:12:15;;;;;;;3.35;2.42;;;38.80;1.00;;;;;;5042772;28;20261;-87
2021/08/25 15:14:40;;;;;;;4.25;2.88;;;39.10;1.00;;;;;;5044070;28;20195;-88
2021/08/25 15:17:06;;;;;;;3.25;2.22;;;39.10;1.00;;;;;;5043577;28;20285;-88
2021/08/25 15:19:32;;;;;;;3.78;2.60;;;38.60;1.00;;;;;;5040868;28;20233;-88
2021/08/25 15:21:58;;;;;;;4.30;3.00;;;39.20;1.00;;;;;;5043801;28;20179;-88
2021/08/25 15:24:31;;;;;;;3.45;2.55;;;40.00;1.00;;;;;;5038629;28;20196;-88
2021/08/25 15:27:00;;;;;;;2.40;2.15;;;39.90;1.00;;;;;;5040433;28;20521;-87
2021/08/25 15:29:32;;;;;;;3.30;2.60;;;40.20;1.00;;;;;;5041255;28;20282;-87
2021/08/25 15:32:01;;;;;;;2.50;2.15;;;40.20;1.00;;;;;;5053322;28;20199;-87
2021/08/25 15:34:27;;;;;;;3.25;2.38;;;39.70;1.00;;;;;;5011279;28;20655;-88
2021/08/25 15:36:53;;;;;;;2.92;2.30;;;40.10;1.00;;;;;;5042946;28;20203;-88